首页
METAR-TAF:

METAR-TAF

机场 :

哈茨菲尔德-杰克逊亚特兰大国际机场

亚特兰大, 喬治亞, 美国

纬度: 33-38-25N, 经度: 084-25-37W, 海拔: 313米

当前天气观测

该预报发布于38分钟前的14:52 UTC
风速4节,风向多变
温度 29°C
湿度 66%
气压 1022 hPa
能見度: 14.5公里
少量云层高于3000英尺
散云层高于25000英尺
多云层高于30000英尺

METAR: KATL 161452Z VRB04KT 9SM FEW030 SCT250 BKN300 29/22 A3019 RMK AO2 SLP211 T02890222 51008

时间: 11:30 (15:30 UTC)

预报

该预报发布于1小时和32分钟前的13:58 UTC
预报有效从16日的 14点(UTC)到 17日的 18点(UTC)
风速5节,风向西
能見度: 10公里
散云层高于25000英尺
从 16日的 1600点(UTC)
风速5节,风向西转西南
能見度: 10公里
散云层高于3500英尺
从 16日的 1800点(UTC)
风速6节,风向西南
能見度: 10公里
散云层高于4500英尺
附近有阵雨
从 17日的 0100点(UTC)
风速5节,风向南转西南
能見度: 10公里
少量云层高于5000英尺
散云层高于25000英尺
从 17日的 0800点(UTC)
风速4节,风向南转西南
能見度: 10公里
多云层高于2500英尺
从 17日的 1500点(UTC)
风速7节,风向西转西南
能見度: 10公里
多云层高于4000英尺

TAF: KATL 161358Z 1614/1718 27005KT P6SM SCT250 FM161600 24005KT P6SM SCT035 FM161800 22006KT P6SM VCSH SCT045 FM170100 20005KT P6SM FEW050 SCT250 FM170800 20004KT P6SM BKN025 FM171500 24007KT P6SM BKN040

超过4000个机场的气象观测和天气预报(METAR&TAF报告)。

可查询的气象台以黄色和红色小点在地图上表示。

将鼠标移到小点上方,可查看气象台名称。

然后点击查看天气观测和预报。

如需切换地图:点击带黑十字的绿色按钮放大地图;点击带横线的绿色按钮缩小地图;或者点击绿色箭头查看邻近地区的地图。


METAR-TAF: